KLAA/LAA METAR and TAF weather

Enter ICAO airport designator
Station Type Date Time Source
KLAA METAR 2022/12/04 04:53 UTC NOAA

KLAA 040453Z AUTO 23004KT 10SM CLR 01/M13 A3017 RMK AO2 SLP229 T00061128


Station Type Date Time Source
KLAA Decoded METAR 2022/12/04 04:53 UTC NOAA

LAMAR MUNICIPAL AIRPORT, CO, United States (KLAA) 38-04N 102-41W 1119M
Dec 03, 2022 - 11:53 PM EST / 2022.12.04 0453 UTC
Wind: from the SW (230 degrees) at 5 MPH (4 KT):0
Visibility: 10 mile(s):0
Sky conditions: clear
Temperature: 33.1 F (0.6 C)
Windchill: 28 F (-2 C):1
Dew Point: 9.0 F (-12.8 C)
Relative Humidity: 35%
Pressure (altimeter): 30.17 in. Hg (1021 hPa)
ob: KLAA 040453Z AUTO 23004KT 10SM CLR 01/M13 A3017 RMK AO2 SLP229 T00061128
cycle: 5

Station Type Date Time Source
KLAA TAF UTC NOAA

Error!

Example: see airport list